Time;durP1;ratioP1;P1;durP2;ratioP2;P2;SDS_P1;SDS_P2;PMS_P1;PMS_P2;Temp;Humidity;BMP_temperature;BMP_pressure;BME280_temperature;BME280_humidity;BME280_pressure;Samples;Min_cycle;Max_cycle;Signal;HPM_P1;HPM_P2
2022/04/13 00:01:05;;;;;;;6.38;5.28;;;;;;;5.43;87.69;99412.84;4971749;28;20046;-60
2022/04/13 00:03:31;;;;;;;6.47;4.95;;;;;;;5.34;87.89;99421.44;4993057;28;20049;-60
2022/04/13 00:05:56;;;;;;;5.88;4.72;;;;;;;5.34;87.84;99423.16;4992834;28;20038;-60
2022/04/13 00:08:22;;;;;;;5.78;4.88;;;;;;;5.22;87.89;99444.59;4992843;28;20037;-59
2022/04/13 00:10:48;;;;;;;5.55;4.28;;;;;;;5.17;88.32;99416.38;4993060;28;20793;-58
2022/04/13 00:13:14;;;;;;;5.40;4.43;;;;;;;5.06;88.70;99418.13;4992963;28;20478;-59
2022/04/13 00:15:40;;;;;;;6.38;4.95;;;;;;;5.14;88.83;99418.09;4993309;28;20033;-58
2022/04/13 00:18:08;;;;;;;5.03;4.22;;;;;;;5.05;88.96;99421.56;5003420;28;20026;-59
2022/04/13 00:20:34;;;;;;;5.47;4.53;;;;;;;5.01;89.07;99418.13;4997127;28;20037;-60
2022/04/13 00:23:00;;;;;;;5.43;4.45;;;;;;;4.97;88.52;99424.16;5012528;28;20061;-60
2022/04/13 00:25:25;;;;;;;6.05;4.68;;;;;;;4.97;88.76;99410.44;5011605;28;20057;-60
2022/04/13 00:27:51;;;;;;;5.63;4.15;;;;;;;4.96;89.06;99413.88;4984652;28;20471;-59
2022/04/13 00:30:17;;;;;;;5.18;4.28;;;;;;;4.99;88.60;99411.31;4996241;28;20027;-60
2022/04/13 00:32:42;;;;;;;6.07;4.25;;;;;;;5.07;88.37;99413.84;4992481;28;20029;-60
2022/04/13 00:35:08;;;;;;;4.90;4.15;;;;;;;4.97;88.48;99413.88;4992781;28;20043;-59
2022/04/13 00:37:37;;;;;;;5.00;4.50;;;;;;;4.90;88.88;99414.75;4992533;28;20037;-59
2022/04/13 00:40:03;;;;;;;5.18;3.80;;;;;;;4.88;89.27;99413.91;4982114;28;20061;-60
2022/04/13 00:42:29;;;;;;;6.70;4.45;;;;;;;4.80;89.56;99415.63;4987407;28;20022;-59
2022/04/13 00:44:55;;;;;;;5.60;4.70;;;;;;;4.79;89.42;99419.91;4978109;28;20484;-61
2022/04/13 00:47:20;;;;;;;6.00;4.35;;;;;;;4.92;89.09;99422.47;4996303;28;20112;-61
2022/04/13 00:49:46;;;;;;;6.05;4.38;;;;;;;4.81;89.12;99425.03;5005109;28;20026;-59
2022/04/13 00:52:13;;;;;;;6.50;3.97;;;;;;;4.77;89.57;99405.38;4999458;28;20029;-60
2022/04/13 00:54:42;;;;;;;4.93;4.03;;;;;;;4.77;88.99;99428.47;4995156;28;20046;-60
2022/04/13 00:57:09;;;;;;;6.00;4.68;;;;;;;4.66;89.47;99401.13;4995987;28;20053;-59
2022/04/13 00:59:39;;;;;;;5.65;3.97;;;;;;;4.70;90.07;99419.91;4995879;28;20034;-59
2022/04/13 01:02:07;;;;;;;5.88;4.32;;;;;;;4.39;90.21;99352.44;4977437;28;20058;-59
2022/04/13 01:04:34;;;;;;;6.65;4.35;;;;;;;4.80;89.50;99411.38;4976482;28;20392;-59
2022/04/13 01:07:02;;;;;;;5.55;4.20;;;;;;;4.84;88.63;99401.94;4976442;28;20026;-59
2022/04/13 01:09:30;;;;;;;5.38;4.35;;;;;;;4.64;89.59;99446.44;4955888;29;20038;-59
2022/04/13 01:11:56;;;;;;;4.55;3.75;;;;;;;4.64;90.07;99422.50;4962989;28;20384;-60
2022/04/13 01:14:21;;;;;;;4.75;3.88;;;;;;;4.80;89.62;99420.75;4975935;28;20123;-60
2022/04/13 01:16:47;;;;;;;4.70;4.20;;;;;;;4.52;89.45;99389.19;4976399;28;20037;-60
2022/04/13 01:19:16;;;;;;;4.88;4.10;;;;;;;4.36;88.97;99347.34;4976033;28;20109;-60
2022/04/13 01:21:59;;;;;;;5.00;4.03;;;;;;;4.34;89.74;99355.03;4975924;28;20091;-60
2022/04/13 01:24:26;;;;;;;5.90;4.32;;;;;;;4.68;89.42;99416.53;4982233;28;20125;-60
2022/04/13 01:26:51;;;;;;;4.88;4.22;;;;;;;4.77;89.83;99420.78;4995550;28;20077;-59
2022/04/13 01:29:17;;;;;;;5.88;4.78;;;;;;;4.69;89.74;99425.94;4995625;28;20034;-59
2022/04/13 01:31:44;;;;;;;4.63;4.00;;;;;;;4.57;89.53;99444.72;4995386;28;20034;-59
2022/04/13 01:34:10;;;;;;;5.32;4.32;;;;;;;4.58;89.67;99430.22;4964340;28;20031;-60
2022/04/13 01:36:37;;;;;;;5.95;4.03;;;;;;;4.46;90.50;99431.94;4969417;28;20031;-60
2022/04/13 01:39:04;;;;;;;4.88;4.15;;;;;;;4.25;89.71;99371.28;4969438;28;20027;-60
2022/04/13 01:41:30;;;;;;;5.90;4.63;;;;;;;4.76;89.72;99424.19;4961322;28;20028;-59
2022/04/13 01:43:56;;;;;;;6.13;4.28;;;;;;;4.78;89.91;99417.34;4995268;28;20494;-60
2022/04/13 01:46:22;;;;;;;4.70;4.00;;;;;;;4.82;89.05;99419.91;4976568;28;20019;-59
2022/04/13 01:48:48;;;;;;;5.45;4.05;;;;;;;4.79;88.81;99424.19;4974103;28;20034;-59
2022/04/13 01:51:14;;;;;;;5.80;4.70;;;;;;;4.77;88.76;99436.16;4973654;28;20038;-59
2022/04/13 01:53:40;;;;;;;4.65;4.15;;;;;;;4.78;89.11;99425.06;4974772;28;20030;-60
2022/04/13 01:56:06;;;;;;;5.60;4.00;;;;;;;4.76;89.14;99427.63;4974586;28;20030;-59
2022/04/13 01:58:31;;;;;;;4.93;4.03;;;;;;;4.77;88.99;99421.63;4953808;29;20090;-59
2022/04/13 02:00:57;;;;;;;5.97;4.15;;;;;;;4.64;89.49;99432.75;4978351;28;20054;-59
2022/04/13 02:03:25;;;;;;;6.05;3.80;;;;;;;4.64;89.61;99425.91;4994977;28;20058;-58
2022/04/13 02:05:52;;;;;;;4.88;3.50;;;;;;;4.51;89.31;99436.22;4977399;28;20027;-58
2022/04/13 02:08:19;;;;;;;6.38;4.30;;;;;;;4.47;89.52;99423.38;4994898;28;20061;-59
2022/04/13 02:10:45;;;;;;;7.60;4.10;;;;;;;4.66;89.16;99433.63;4994683;28;20019;-59
2022/04/13 02:13:11;;;;;;;5.75;3.90;;;;;;;4.65;88.86;99440.44;5008208;28;20080;-59
2022/04/13 02:15:38;;;;;;;6.45;4.15;;;;;;;4.80;89.39;99436.16;5010836;28;20094;-59
2022/04/13 02:18:05;;;;;;;5.35;4.32;;;;;;;4.80;88.43;99437.03;5007655;28;20483;-59
2022/04/13 02:20:30;;;;;;;4.38;3.97;;;;;;;4.87;88.82;99437.84;4995575;28;20038;-59
2022/04/13 02:22:56;;;;;;;4.68;4.00;;;;;;;4.84;88.38;99438.72;4994671;28;20031;-59
2022/04/13 02:25:22;;;;;;;4.80;3.95;;;;;;;4.90;87.98;99450.66;5011422;28;20034;-59
2022/04/13 02:27:47;;;;;;;5.78;4.15;;;;;;;4.88;87.68;99447.25;4989344;28;20483;-60
2022/04/13 02:30:13;;;;;;;7.15;4.60;;;;;;;4.92;88.09;99451.53;4982537;28;20030;-59
2022/04/13 02:32:40;;;;;;;4.03;3.58;;;;;;;5.03;88.15;99454.09;4998344;28;20390;-59
2022/04/13 02:35:06;;;;;;;4.80;4.03;;;;;;;4.73;88.10;99462.66;4994390;28;20026;-60
2022/04/13 02:37:32;;;;;;;5.05;4.07;;;;;;;4.55;88.97;99456.72;4994249;28;20502;-59
2022/04/13 02:39:57;;;;;;;4.90;3.92;;;;;;;4.62;88.81;99466.13;4994386;28;20053;-58
2022/04/13 02:42:23;;;;;;;5.40;4.60;;;;;;;4.70;88.41;99465.25;5003034;28;20026;-60
2022/04/13 02:44:49;;;;;;;5.05;3.90;;;;;;;4.76;88.43;99460.09;5000247;28;20066;-60
2022/04/13 02:47:14;;;;;;;4.85;4.03;;;;;;;4.58;88.71;99469.53;4994198;28;20042;-59
2022/04/13 02:49:41;;;;;;;6.53;3.80;;;;;;;4.58;88.69;99472.09;5001757;28;20029;-58
2022/04/13 02:52:07;;;;;;;4.03;3.63;;;;;;;4.65;88.49;99466.09;4996175;28;20117;-59
2022/04/13 02:54:32;;;;;;;4.55;3.92;;;;;;;4.57;88.20;99455.00;4993908;28;20451;-58
2022/04/13 02:56:58;;;;;;;5.75;4.50;;;;;;;4.59;88.68;99472.94;4993604;28;20030;-59
2022/04/13 02:59:23;;;;;;;3.97;3.53;;;;;;;4.80;88.09;99477.19;4993390;28;20383;-59
2022/04/13 03:01:49;;;;;;;5.30;4.15;;;;;;;4.73;88.99;99478.06;5007836;28;20046;-59
2022/04/13 03:04:16;;;;;;;5.43;3.88;;;;;;;4.70;88.19;99463.53;4993826;28;20113;-60
2022/04/13 03:06:42;;;;;;;4.93;3.80;;;;;;;4.74;88.25;99480.63;4976388;28;20054;-60
2022/04/13 03:09:08;;;;;;;4.47;3.70;;;;;;;4.72;87.95;99472.09;4993678;28;20392;-58
2022/04/13 03:11:33;;;;;;;4.82;3.47;;;;;;;4.72;88.17;99481.47;4993498;28;20018;-59
2022/04/13 03:13:59;;;;;;;4.38;3.53;;;;;;;4.59;88.35;99478.06;5004137;28;20088;-58
2022/04/13 03:16:25;;;;;;;4.30;3.75;;;;;;;4.55;89.06;99476.38;5010349;28;20057;-59
2022/04/13 03:18:50;;;;;;;5.20;3.60;;;;;;;4.57;88.72;99485.75;5010503;28;20109;-59
2022/04/13 03:21:16;;;;;;;4.22;3.72;;;;;;;4.53;89.42;99483.22;4996007;28;20053;-60
2022/04/13 03:23:41;;;;;;;4.15;3.45;;;;;;;4.66;88.74;99496.03;4993255;28;20030;-59
2022/04/13 03:26:10;;;;;;;3.55;3.25;;;;;;;4.71;88.18;99492.63;5005272;28;20038;-59
2022/04/13 03:28:36;;;;;;;7.05;4.05;;;;;;;4.64;88.24;99491.75;4984660;28;20463;-58
2022/04/13 03:31:01;;;;;;;5.00;3.92;;;;;;;4.64;88.52;99497.72;4987480;28;20026;-59
2022/04/13 03:33:27;;;;;;;4.40;3.30;;;;;;;4.72;88.65;99497.75;5008525;28;20033;-59
2022/04/13 03:35:52;;;;;;;3.95;3.50;;;;;;;4.47;88.61;99502.00;4997863;28;20375;-58
2022/04/13 03:38:18;;;;;;;5.32;3.50;;;;;;;4.61;88.87;99491.75;5012106;28;20029;-59
2022/04/13 03:40:44;;;;;;;5.25;3.58;;;;;;;4.35;88.85;99482.34;4993509;28;20394;-59
2022/04/13 03:43:09;;;;;;;6.55;4.15;;;;;;;4.45;89.44;99503.72;5008282;28;20075;-59
2022/04/13 03:45:36;;;;;;;4.95;3.83;;;;;;;4.58;88.40;99499.47;5012839;28;20058;-60
2022/04/13 03:48:02;;;;;;;5.25;4.10;;;;;;;4.59;88.91;99503.72;5012788;28;20044;-59
2022/04/13 03:50:27;;;;;;;4.47;3.67;;;;;;;4.62;88.35;99506.31;5004086;28;20475;-60
2022/04/13 03:52:53;;;;;;;4.40;4.00;;;;;;;4.54;88.59;99503.72;4993278;28;20027;-59
2022/04/13 03:55:22;;;;;;;5.85;4.13;;;;;;;4.55;88.18;99505.44;4993160;28;20495;-59
2022/04/13 03:57:50;;;;;;;4.50;3.58;;;;;;;4.38;88.34;99448.19;4993107;28;20026;-59
2022/04/13 04:00:16;;;;;;;5.18;4.35;;;;;;;4.63;88.63;99508.00;4992810;28;20124;-60
2022/04/13 04:02:43;;;;;;;5.32;3.63;;;;;;;4.59;88.24;99511.41;4993207;28;20035;-59
2022/04/13 04:05:09;;;;;;;4.82;4.30;;;;;;;4.56;88.61;99508.84;4975882;28;20030;-58
2022/04/13 04:07:35;;;;;;;5.60;3.50;;;;;;;4.59;88.56;99504.59;5010957;28;20030;-58
2022/04/13 04:10:01;;;;;;;5.05;3.38;;;;;;;4.68;88.24;99518.28;4985598;28;20045;-59
2022/04/13 04:12:27;;;;;;;5.57;3.47;;;;;;;4.69;88.52;99517.41;4982105;28;20045;-59
2022/04/13 04:14:57;;;;;;;5.10;3.10;;;;;;;4.68;88.16;99516.56;5013698;28;20484;-59
2022/04/13 04:17:23;;;;;;;5.05;3.80;;;;;;;4.74;87.97;99518.25;5016710;28;20109;-60
2022/04/13 04:19:48;;;;;;;4.57;3.50;;;;;;;4.80;88.58;99518.25;4997698;28;20376;-59
2022/04/13 04:22:15;;;;;;;6.50;4.15;;;;;;;4.75;87.77;99522.53;4996833;28;20391;-59
2022/04/13 04:24:40;;;;;;;6.28;3.65;;;;;;;4.81;87.61;99518.25;4996482;28;20486;-59
2022/04/13 04:27:06;;;;;;;5.97;3.92;;;;;;;4.87;88.10;99517.38;5010574;28;20026;-59
2022/04/13 04:29:31;;;;;;;6.80;4.18;;;;;;;4.81;87.57;99517.41;5010249;28;20025;-59
2022/04/13 04:31:59;;;;;;;6.70;4.25;;;;;;;4.96;87.98;99522.50;4996446;28;20546;-59
2022/04/13 04:34:25;;;;;;;5.97;4.80;;;;;;;5.03;87.22;99525.06;4978327;28;20384;-59
2022/04/13 04:36:51;;;;;;;6.18;4.10;;;;;;;4.91;87.58;99513.97;4996791;28;20042;-59
2022/04/13 04:39:17;;;;;;;8.27;4.15;;;;;;;4.79;87.94;99537.06;4995541;28;20026;-59
2022/04/13 04:41:43;;;;;;;9.00;4.28;;;;;;;4.80;87.74;99531.94;4996090;28;20423;-59
2022/04/13 04:44:10;;;;;;;4.75;3.75;;;;;;;4.64;88.60;99536.19;4996235;28;20037;-59
2022/04/13 04:46:36;;;;;;;6.07;4.22;;;;;;;4.88;87.59;99538.78;4978505;28;20038;-59
2022/04/13 04:49:02;;;;;;;5.15;4.10;;;;;;;4.97;87.34;99541.31;5001225;28;20531;-58
2022/04/13 04:51:30;;;;;;;5.07;3.90;;;;;;;4.95;87.89;99543.91;5002373;28;20045;-59
2022/04/13 04:53:56;;;;;;;5.35;4.15;;;;;;;4.79;87.44;99537.06;4996117;28;20030;-58
2022/04/13 04:56:22;;;;;;;6.80;3.75;;;;;;;5.01;87.74;99537.91;4996224;28;20033;-59
2022/04/13 04:58:47;;;;;;;5.50;3.90;;;;;;;5.13;87.17;99539.59;4997033;28;20022;-59
2022/04/13 05:01:13;;;;;;;6.05;3.88;;;;;;;5.16;86.44;99542.16;5000343;28;20046;-59
2022/04/13 05:03:39;;;;;;;5.63;4.85;;;;;;;5.26;86.70;99542.97;4995738;28;20045;-59
2022/04/13 05:06:04;;;;;;;6.85;3.63;;;;;;;5.34;86.37;99539.56;4995597;28;20026;-59
2022/04/13 05:08:30;;;;;;;7.20;3.88;;;;;;;5.35;86.14;99536.13;4995855;28;20493;-59
2022/04/13 05:10:55;;;;;;;5.53;4.32;;;;;;;5.45;85.32;99538.69;4978045;28;20525;-59
2022/04/13 05:13:21;;;;;;;7.38;4.07;;;;;;;5.43;85.23;99541.25;4995439;28;20041;-58
2022/04/13 05:15:47;;;;;;;5.32;3.92;;;;;;;5.52;84.60;99541.19;5011872;28;20034;-59
2022/04/13 05:18:13;;;;;;;8.35;4.53;;;;;;;5.52;84.97;99548.91;5013163;28;20033;-59
2022/04/13 05:20:40;;;;;;;5.85;4.03;;;;;;;5.53;84.65;99549.78;5004502;28;20122;-59
2022/04/13 05:23:05;;;;;;;9.23;4.88;;;;;;;5.60;85.06;99553.16;4987498;28;20471;-59
2022/04/13 05:25:31;;;;;;;6.38;4.45;;;;;;;5.54;85.10;99551.47;4994902;28;20073;-60
2022/04/13 05:27:57;;;;;;;10.93;4.72;;;;;;;5.63;84.94;99554.03;4995920;28;20491;-59
2022/04/13 05:30:22;;;;;;;6.20;4.75;;;;;;;5.68;84.50;99551.44;4995058;28;20083;-59
2022/04/13 05:32:58;;;;;;;6.30;4.97;;;;;;;5.70;84.39;99552.25;4995451;28;20026;-59
2022/04/13 05:35:28;;;;;;;5.97;4.95;;;;;;;5.73;84.33;99553.97;4995845;28;20105;-59
2022/04/13 05:37:54;;;;;;;7.60;5.03;;;;;;;5.64;84.16;99560.88;4977852;28;20112;-59
2022/04/13 05:40:22;;;;;;;7.68;4.57;;;;;;;5.72;84.19;99568.56;4995349;28;20109;-58
2022/04/13 05:42:48;;;;;;;8.98;5.18;;;;;;;5.69;84.09;99563.44;4994495;28;20041;-59
2022/04/13 05:45:15;;;;;;;9.00;5.45;;;;;;;5.74;83.43;99574.53;4994446;28;20109;-59
2022/04/13 05:47:44;;;;;;;7.20;4.95;;;;;;;5.72;83.86;99577.97;4994708;28;20101;-58
2022/04/13 05:50:13;;;;;;;7.75;5.28;;;;;;;5.72;83.80;99576.25;4994399;28;20037;-59
2022/04/13 05:52:40;;;;;;;7.93;5.20;;;;;;;5.68;83.75;99583.09;4994797;28;20034;-59
2022/04/13 05:55:07;;;;;;;7.97;5.63;;;;;;;5.50;84.32;99593.44;4994963;28;20033;-59
2022/04/13 05:57:32;;;;;;;10.15;5.97;;;;;;;5.35;84.87;99573.78;4994161;28;20438;-59
2022/04/13 05:59:58;;;;;;;8.70;5.57;;;;;;;5.14;85.03;99595.22;4975345;28;20126;-59
2022/04/13 06:02:24;;;;;;;8.70;5.97;;;;;;;5.42;85.70;99587.47;4994832;28;20038;-59
2022/04/13 06:04:49;;;;;;;9.00;6.30;;;;;;;5.50;84.77;99593.44;4994352;28;20128;-59
2022/04/13 06:07:15;;;;;;;10.32;7.53;;;;;;;5.40;84.76;99592.63;4994770;28;20027;-59
2022/04/13 06:09:41;;;;;;;10.90;6.47;;;;;;;5.39;84.59;99597.72;4994751;28;20034;-60
2022/04/13 06:12:07;;;;;;;11.48;6.93;;;;;;;5.56;84.13;99601.16;4994662;28;20030;-59
2022/04/13 06:14:32;;;;;;;8.88;6.47;;;;;;;5.51;84.72;99595.16;4984163;28;20033;-59
2022/04/13 06:16:58;;;;;;;9.45;7.13;;;;;;;5.50;84.08;99593.44;5006099;28;20035;-59
2022/04/13 06:19:24;;;;;;;10.48;7.20;;;;;;;5.63;83.92;99596.81;4993192;28;20464;-59
2022/04/13 06:21:49;;;;;;;7.53;6.20;;;;;;;5.68;83.85;99597.69;4995509;28;20476;-59
2022/04/13 06:24:16;;;;;;;10.73;6.47;;;;;;;5.60;84.00;99600.28;4994491;28;20479;-59
2022/04/13 06:26:41;;;;;;;10.35;6.90;;;;;;;5.57;83.72;99602.84;5009474;28;20022;-59
2022/04/13 06:29:07;;;;;;;10.90;6.22;;;;;;;5.60;83.62;99608.00;4994393;28;20041;-60
2022/04/13 06:31:33;;;;;;;21.42;7.68;;;;;;;5.67;83.73;99604.53;4994203;28;20027;-59
2022/04/13 06:33:58;;;;;;;10.50;6.07;;;;;;;5.74;83.69;99617.34;5006076;28;20025;-58
2022/04/13 06:36:24;;;;;;;12.63;6.55;;;;;;;5.61;84.05;99616.53;4998526;28;20102;-59
2022/04/13 06:38:49;;;;;;;10.27;6.65;;;;;;;5.75;83.58;99619.06;4977054;28;20061;-59
2022/04/13 06:41:15;;;;;;;9.38;6.82;;;;;;;5.80;83.02;99617.31;4994295;28;20059;-58
2022/04/13 06:43:41;;;;;;;15.18;7.35;;;;;;;5.86;82.78;99607.91;5011621;28;20459;-60
2022/04/13 06:46:07;;;;;;;11.68;6.57;;;;;;;5.86;82.65;99615.59;5013797;28;20097;-60
2022/04/13 06:48:33;;;;;;;10.15;7.20;;;;;;;5.77;82.90;99630.19;4984115;28;20030;-58
2022/04/13 06:51:00;;;;;;;10.90;7.35;;;;;;;5.68;83.85;99639.63;4998686;28;20045;-59
2022/04/13 06:53:26;;;;;;;12.52;6.88;;;;;;;5.79;83.14;99636.19;4990158;28;20038;-59
2022/04/13 06:55:53;;;;;;;11.07;7.13;;;;;;;5.87;82.89;99637.88;4995999;28;20034;-59
2022/04/13 06:58:19;;;;;;;19.15;7.57;;;;;;;5.71;82.56;99628.50;4990952;28;20041;-59
2022/04/13 07:00:45;;;;;;;8.52;6.85;;;;;;;5.58;83.17;99626.81;4991286;28;20046;-58
2022/04/13 07:03:11;;;;;;;12.60;7.78;;;;;;;5.73;82.73;99631.94;4990792;28;20053;-58
2022/04/13 07:05:37;;;;;;;10.93;7.43;;;;;;;5.99;82.79;99643.88;4990282;28;20030;-60
2022/04/13 07:08:03;;;;;;;14.20;7.22;;;;;;;5.99;82.19;99631.88;4992238;28;20054;-58
2022/04/13 07:10:30;;;;;;;9.93;6.47;;;;;;;5.93;82.50;99654.13;4992115;28;20034;-60
2022/04/13 07:12:57;;;;;;;10.10;6.97;;;;;;;5.98;82.00;99655.84;4994402;28;20027;-58
2022/04/13 07:15:23;;;;;;;13.57;7.15;;;;;;;5.79;82.65;99644.75;5009925;28;20029;-59
2022/04/13 07:17:48;;;;;;;12.50;7.03;;;;;;;5.77;82.50;99645.59;5008512;28;20441;-59
2022/04/13 07:20:14;;;;;;;14.98;7.28;;;;;;;5.95;82.10;99648.13;4991311;28;20026;-59
2022/04/13 07:22:48;;;;;;;13.23;7.25;;;;;;;6.04;82.06;99637.84;4990640;28;20134;-59
2022/04/13 07:25:15;;;;;;;9.52;6.85;;;;;;;6.08;81.85;99653.28;4975641;28;20427;-59
2022/04/13 07:27:41;;;;;;;7.97;6.47;;;;;;;5.91;82.49;99651.56;4993401;28;20379;-59
2022/04/13 07:30:07;;;;;;;11.20;7.05;;;;;;;6.05;81.47;99638.69;4990899;28;20038;-58
2022/04/13 07:32:33;;;;;;;13.32;7.22;;;;;;;6.23;81.27;99655.78;4986591;28;20039;-58
2022/04/13 07:34:59;;;;;;;10.70;7.05;;;;;;;5.83;81.33;99643.88;4993394;28;20077;-58
2022/04/13 07:37:26;;;;;;;10.70;6.22;;;;;;;5.92;81.62;99663.56;4999130;28;20061;-59
2022/04/13 07:39:54;;;;;;;19.45;8.23;;;;;;;5.97;82.20;99659.31;5002458;28;20113;-58
2022/04/13 07:42:21;;;;;;;14.55;7.43;;;;;;;5.91;82.23;99656.69;4996696;28;20083;-59
2022/04/13 07:44:46;;;;;;;13.45;7.00;;;;;;;5.82;81.93;99657.59;4993439;28;20121;-59
2022/04/13 07:47:14;;;;;;;11.73;7.15;;;;;;;5.86;82.52;99655.88;4966453;28;20110;-59
2022/04/13 07:49:41;;;;;;;13.48;6.88;;;;;;;6.05;82.17;99670.41;4990301;28;20034;-59
2022/04/13 07:52:07;;;;;;;11.65;6.75;;;;;;;5.96;82.10;99662.69;5012920;28;20041;-59
2022/04/13 07:54:34;;;;;;;12.88;7.13;;;;;;;6.10;82.08;99660.13;4995478;28;20085;-58
2022/04/13 07:56:59;;;;;;;12.25;7.30;;;;;;;6.19;81.44;99651.50;4992944;28;20041;-59
2022/04/13 07:59:25;;;;;;;10.63;7.22;;;;;;;6.42;81.04;99658.28;4993232;28;20022;-59
2022/04/13 08:02:09;;;;;;;11.60;7.22;;;;;;;6.32;81.05;99654.88;4987062;28;20049;-58
2022/04/13 08:04:35;;;;;;;10.98;6.90;;;;;;;6.61;80.69;99669.31;4973684;28;20392;-59
2022/04/13 08:07:01;;;;;;;14.07;7.82;;;;;;;6.57;80.62;99671.91;4988853;28;20038;-58
2022/04/13 08:09:27;;;;;;;10.40;7.65;;;;;;;6.63;80.04;99678.72;4974995;28;20096;-59
2022/04/13 08:11:52;;;;;;;13.02;7.53;;;;;;;6.29;80.91;99668.59;4994850;28;20034;-59
2022/04/13 08:14:22;;;;;;;12.52;8.32;;;;;;;6.08;81.72;99689.25;5001074;28;20387;-59
2022/04/13 08:16:48;;;;;;;11.80;8.38;;;;;;;6.39;81.59;99677.13;5009385;28;20033;-59
2022/04/13 08:19:14;;;;;;;13.80;8.77;;;;;;;6.67;80.48;99677.84;4998819;28;20386;-59
2022/04/13 08:21:39;;;;;;;13.43;8.75;;;;;;;6.57;80.77;99682.19;5002182;28;20026;-59
2022/04/13 08:24:06;;;;;;;13.30;8.63;;;;;;;6.64;80.05;99685.59;5004436;28;20066;-59
2022/04/13 08:26:31;;;;;;;13.10;8.57;;;;;;;6.73;80.21;99679.53;4973648;28;20472;-59
2022/04/13 08:28:57;;;;;;;11.02;7.70;;;;;;;6.72;79.99;99688.97;4974492;28;20054;-59
2022/04/13 08:31:22;;;;;;;11.50;7.90;;;;;;;6.90;80.24;99679.44;4992505;28;20042;-59
2022/04/13 08:33:48;;;;;;;12.93;8.02;;;;;;;7.01;79.92;99684.50;4992326;28;20026;-60
2022/04/13 08:36:14;;;;;;;12.65;8.63;;;;;;;7.00;78.79;99670.78;4992293;28;20054;-58
2022/04/13 08:38:40;;;;;;;12.52;7.40;;;;;;;6.79;79.75;99691.53;4992221;28;20487;-59
2022/04/13 08:41:20;;;;;;;12.98;8.93;;;;;;;6.79;79.90;99622.03;4992144;28;20033;-59
2022/04/13 08:43:51;;;;;;;17.45;9.35;;;;;;;6.83;78.55;99628.88;4993029;28;20027;-58
2022/04/13 08:46:27;;;;;;;16.73;8.90;;;;;;;7.00;79.49;99691.38;4992319;28;20058;-58
2022/04/13 08:48:56;;;;;;;11.73;8.27;;;;;;;6.69;78.94;99624.66;4992436;28;20037;-57
2022/04/13 08:51:24;;;;;;;18.08;9.50;;;;;;;6.90;78.74;99631.38;4994990;28;20050;-58
2022/04/13 08:54:03;;;;;;;14.63;8.90;;;;;;;7.25;79.51;99681.75;4992046;28;20250;-58
2022/04/13 08:56:34;;;;;;;12.82;8.77;;;;;;;6.84;78.22;99633.13;4992568;28;20038;-58
2022/04/13 08:59:27;;;;;;;15.43;9.00;;;;;;;6.72;78.98;99629.78;4992655;28;20049;-58
2022/04/13 09:02:11;;;;;;;14.38;8.68;;;;;;;7.19;78.86;99686.09;4995548;28;20449;-59
2022/04/13 09:04:39;;;;;;;11.23;7.95;;;;;;;7.22;78.65;99686.91;4995964;28;20105;-59
2022/04/13 09:07:06;;;;;;;13.30;8.07;;;;;;;6.98;79.13;99682.78;4981652;28;20053;-59
2022/04/13 09:09:43;;;;;;;14.02;8.55;;;;;;;6.91;79.57;99699.16;4995963;28;20503;-59
2022/04/13 09:12:10;;;;;;;14.73;8.40;;;;;;;6.70;79.24;99634.09;4999813;28;20030;-59
2022/04/13 09:14:37;;;;;;;20.13;9.27;;;;;;;7.08;79.79;99707.63;5006503;28;20050;-59
2022/04/13 09:17:04;;;;;;;16.08;9.18;;;;;;;6.32;80.56;99627.44;4978188;28;20121;-59
2022/04/13 09:19:32;;;;;;;15.63;9.23;;;;;;;7.03;80.29;99705.97;4995544;28;20054;-59
2022/04/13 09:21:58;;;;;;;15.50;8.95;;;;;;;7.26;79.27;99705.78;4996745;28;20034;-59
2022/04/13 09:24:26;;;;;;;15.98;8.13;;;;;;;7.24;79.45;99702.38;4995819;28;20033;-59
2022/04/13 09:26:55;;;;;;;16.63;9.27;;;;;;;7.27;79.90;99712.66;4994747;28;20019;-58
2022/04/13 09:29:21;;;;;;;13.82;8.18;;;;;;;7.12;79.94;99713.59;4995520;28;20077;-58
2022/04/13 09:31:47;;;;;;;15.02;8.73;;;;;;;7.10;79.04;99707.63;4995036;28;20027;-57
2022/04/13 09:34:13;;;;;;;13.73;8.55;;;;;;;7.04;78.98;99712.78;4995374;28;20554;-58
2022/04/13 09:36:39;;;;;;;14.85;9.23;;;;;;;6.91;79.73;99714.59;5003095;28;20174;-58
2022/04/13 09:39:04;;;;;;;16.17;9.52;;;;;;;6.61;80.97;99719.03;5014932;28;20053;-58
2022/04/13 09:41:39;;;;;;;15.77;9.25;;;;;;;6.70;80.90;99719.00;5009590;28;20084;-59
2022/04/13 09:44:15;;;;;;;15.18;9.00;;;;;;;6.75;79.90;99706.09;4987255;28;20537;-59
2022/04/13 09:46:41;;;;;;;15.80;8.73;;;;;;;6.82;80.49;99714.66;5011342;28;20053;-59
2022/04/13 09:49:11;;;;;;;13.20;8.50;;;;;;;6.82;79.92;99717.22;4991574;28;20026;-59
2022/04/13 09:51:56;;;;;;;18.50;9.15;;;;;;;6.85;80.54;99715.47;5002396;28;20062;-59
2022/04/13 09:54:26;;;;;;;22.20;9.82;;;;;;;6.84;80.58;99705.19;4994774;28;20476;-57
2022/04/13 09:56:52;;;;;;;16.65;9.52;;;;;;;6.66;80.43;99703.59;4994558;28;20031;-58
2022/04/13 09:59:26;;;;;;;19.13;9.15;;;;;;;6.54;80.80;99664.22;4976962;28;20026;-58
2022/04/13 10:01:52;;;;;;;17.45;9.63;;;;;;;6.64;81.17;99731.03;4974823;28;20046;-58
2022/04/13 10:04:28;;;;;;;16.75;8.50;;;;;;;6.74;81.38;99730.13;4995079;28;20034;-58
2022/04/13 10:06:54;;;;;;;16.55;10.15;;;;;;;6.91;81.57;99735.19;4992938;28;20027;-58
2022/04/13 10:09:22;;;;;;;15.95;8.88;;;;;;;6.88;80.73;99715.50;4994863;28;20033;-59
2022/04/13 10:12:04;;;;;;;16.05;9.45;;;;;;;6.94;81.21;99732.63;4994572;28;20027;-58
2022/04/13 10:14:30;;;;;;;16.00;8.23;;;;;;;6.88;80.47;99735.22;4997888;28;20025;-59
2022/04/13 10:17:09;;;;;;;14.00;9.10;;;;;;;6.80;80.74;99734.38;4982034;28;20030;-59
2022/04/13 10:19:37;;;;;;;14.70;9.30;;;;;;;6.74;80.94;99731.00;4991570;28;20061;-59
2022/04/13 10:22:03;;;;;;;15.30;8.55;;;;;;;6.77;80.34;99732.72;4988651;28;20106;-59
2022/04/13 10:24:34;;;;;;;21.90;9.88;;;;;;;6.75;80.52;99724.13;4994527;28;20034;-58
2022/04/13 10:27:17;;;;;;;16.05;8.82;;;;;;;6.85;80.35;99730.94;4994583;28;20081;-59
2022/04/13 10:29:48;;;;;;;15.80;9.70;;;;;;;6.61;80.60;99684.75;4994356;28;20034;-58
2022/04/13 10:32:18;;;;;;;14.98;8.73;;;;;;;6.56;80.03;99680.47;4995197;28;20042;-58
2022/04/13 10:34:49;;;;;;;16.40;8.88;;;;;;;6.50;80.46;99666.78;4992853;28;20053;-57
2022/04/13 10:37:19;;;;;;;15.30;9.10;;;;;;;6.86;80.07;99742.09;4989553;28;20030;-59
2022/04/13 10:39:46;;;;;;;14.85;9.20;;;;;;;6.70;80.45;99739.59;4982974;28;20031;-59
2022/04/13 10:42:14;;;;;;;14.50;8.65;;;;;;;6.26;80.51;99684.06;4994453;28;20018;-58
2022/04/13 10:44:54;;;;;;;13.80;9.00;;;;;;;6.39;80.82;99677.97;4994262;28;20080;-58
2022/04/13 10:47:44;;;;;;;14.77;10.07;;;;;;;6.39;80.93;99692.56;4994313;28;20043;-58
2022/04/13 10:50:13;;;;;;;12.80;8.40;;;;;;;6.62;80.47;99731.06;4997995;28;20029;-58
2022/04/13 10:52:58;;;;;;;12.68;8.65;;;;;;;6.65;81.37;99740.47;4998218;28;20085;-58
2022/04/13 10:55:27;;;;;;;14.88;9.40;;;;;;;6.58;81.91;99739.66;5007474;28;20029;-58
2022/04/13 10:57:57;;;;;;;15.50;9.45;;;;;;;6.56;81.54;99737.09;5005012;28;20522;-58
2022/04/13 11:00:24;;;;;;;12.80;8.82;;;;;;;6.55;81.98;99747.38;4979443;28;20053;-59
2022/04/13 11:02:54;;;;;;;15.38;8.15;;;;;;;6.74;81.69;99759.31;4980741;28;20118;-59
2022/04/13 11:05:21;;;;;;;15.18;9.88;;;;;;;6.73;81.27;99749.88;4983645;28;20379;-59
2022/04/13 11:07:50;;;;;;;16.23;9.38;;;;;;;6.69;81.44;99740.44;4993751;28;20106;-59
2022/04/13 11:10:19;;;;;;;15.07;9.70;;;;;;;6.19;80.99;99697.78;4993566;28;20021;-57
2022/04/13 11:12:46;;;;;;;14.80;9.63;;;;;;;6.60;81.97;99750.81;4994141;28;20033;-59
2022/04/13 11:15:11;;;;;;;16.67;9.93;;;;;;;6.62;81.95;99759.34;5001838;28;20037;-58
2022/04/13 11:17:42;;;;;;;15.13;9.63;;;;;;;6.74;81.34;99759.31;4993573;28;20026;-58
2022/04/13 11:20:22;;;;;;;13.88;9.32;;;;;;;6.82;80.65;99774.72;4989785;28;20438;-59
2022/04/13 11:23:08;;;;;;;14.88;10.02;;;;;;;6.55;80.86;99706.22;4992768;28;20034;-58
2022/04/13 11:25:45;;;;;;;15.93;9.75;;;;;;;6.96;80.34;99753.22;4985124;28;20035;-59
2022/04/13 11:28:10;;;;;;;13.73;10.27;;;;;;;7.02;80.15;99760.88;4990502;28;20435;-59
2022/04/13 11:30:58;;;;;;;17.63;9.82;;;;;;;6.85;80.06;99769.53;4973263;28;20026;-58
2022/04/13 11:33:58;;;;;;;14.45;9.88;;;;;;;6.55;80.07;99703.66;4985927;28;20070;-59
2022/04/13 11:36:28;;;;;;;17.27;9.70;;;;;;;6.59;80.66;99756.81;4997593;28;20097;-59
2022/04/13 11:38:54;;;;;;;14.13;9.23;;;;;;;6.54;81.46;99777.41;4995848;28;20022;-59
2022/04/13 11:41:21;;;;;;;13.27;9.43;;;;;;;6.59;81.44;99767.09;4993142;28;20034;-59